createdAt,value
2018-10-06T00:00:07.116Z,94.91
2018-10-06T00:03:07.089Z,93.54
2018-10-06T00:06:07.061Z,92.63
2018-10-06T00:09:07.001Z,91.16
2018-10-06T00:12:06.961Z,90.60
2018-10-06T00:15:06.947Z,89.69
2018-10-06T00:18:06.920Z,89.79
2018-10-06T00:21:06.877Z,90.75
2018-10-06T00:24:06.850Z,91.71
2018-10-06T00:27:07.852Z,91.91
2018-10-06T00:30:06.758Z,92.63
2018-10-06T00:33:06.742Z,91.71
2018-10-06T00:36:06.711Z,91.81
2018-10-06T00:39:06.683Z,91.71
2018-10-06T00:42:06.638Z,91.96
2018-10-06T00:45:06.571Z,92.11
2018-10-06T00:48:06.554Z,92.16
2018-10-06T00:51:06.521Z,92.26
2018-10-06T00:54:06.520Z,91.40
2018-10-06T00:57:06.460Z,90.69
2018-10-06T01:00:06.443Z,90.79
2018-10-06T01:03:06.410Z,90.79
2018-10-06T01:06:07.898Z,90.69
2018-10-06T01:09:06.318Z,90.69
2018-10-06T01:12:06.310Z,89.97
2018-10-06T01:15:06.238Z,89.77
2018-10-06T01:18:06.245Z,90.14
2018-10-06T01:21:14.026Z,89.32
2018-10-06T01:25:16.573Z,88.10
2018-10-06T01:28:16.567Z,89.12
2018-10-06T01:31:16.554Z,89.87
2018-10-06T01:34:16.564Z,89.53
2018-10-06T01:37:16.488Z,88.31
2018-10-06T01:40:19.190Z,88.40
2018-10-06T01:43:16.265Z,88.10
2018-10-06T01:46:16.290Z,87.75
2018-10-06T01:49:16.205Z,87.69
2018-10-06T01:52:16.227Z,88.34
2018-10-06T01:55:39.154Z,87.90
2018-10-06T01:58:16.063Z,87.90
2018-10-06T02:01:16.108Z,88.55
2018-10-06T02:04:16.035Z,88.39
2018-10-06T02:07:15.956Z,89.75
2018-10-06T02:10:15.973Z,90.31
2018-10-06T02:13:15.883Z,91.88
2018-10-06T02:16:15.861Z,93.45
2018-10-06T02:19:15.938Z,94.15
2018-10-06T02:22:15.821Z,94.87
2018-10-06T02:25:15.797Z,94.87
2018-10-06T02:28:15.726Z,96.04
2018-10-06T02:31:15.852Z,95.84
2018-10-06T02:34:15.667Z,96.66
2018-10-06T02:38:30.369Z,96.20
2018-10-06T02:41:30.323Z,95.59
2018-10-06T02:44:30.341Z,95.89
2018-10-06T02:47:30.252Z,94.26
2018-10-06T02:50:30.252Z,94.20
2018-10-06T02:53:30.213Z,94.85
2018-10-06T02:56:30.187Z,95.53
2018-10-06T02:59:30.124Z,96.08
2018-10-06T03:02:30.126Z,95.98
2018-10-06T03:05:30.055Z,96.54
2018-10-06T03:08:30.036Z,96.54
2018-10-06T03:11:29.994Z,96.48
2018-10-06T03:14:30.009Z,96.89
2018-10-06T03:17:29.925Z,97.50
2018-10-06T03:20:29.938Z,98.18
2018-10-06T03:23:29.871Z,97.21
2018-10-06T03:26:29.830Z,96.51
2018-10-06T03:29:29.792Z,94.21
2018-10-06T03:32:29.785Z,93.05
2018-10-06T03:35:29.726Z,93.35
2018-10-06T03:38:29.703Z,93.70
2018-10-06T03:41:29.652Z,94.36
2018-10-06T03:44:29.662Z,95.73
2018-10-06T03:47:29.588Z,95.88
2018-10-06T03:50:29.591Z,96.49
2018-10-06T03:53:29.537Z,96.95
2018-10-06T03:56:29.483Z,97.50
2018-10-06T03:59:29.460Z,96.69
2018-10-06T04:02:29.423Z,96.73
2018-10-06T04:05:29.377Z,97.86
2018-10-06T04:08:29.355Z,98.58
2018-10-06T04:11:29.313Z,98.42
2018-10-06T04:14:29.307Z,98.93
2018-10-06T04:17:29.255Z,99.24
2018-10-06T04:20:29.303Z,99.24
2018-10-06T04:23:29.193Z,98.77
2018-10-06T04:26:29.172Z,98.36
2018-10-06T04:29:29.135Z,99.34
2018-10-06T04:32:29.086Z,99.65
2018-10-06T04:35:29.052Z,99.19
2018-10-06T04:38:29.050Z,98.58
2018-10-06T04:41:28.986Z,98.62
2018-10-06T04:44:28.969Z,98.05
2018-10-06T04:47:28.898Z,99.69
2018-10-06T04:50:28.970Z,99.99
2018-10-06T04:53:28.856Z,99.99
2018-10-06T04:56:28.845Z,99.99
2018-10-06T04:59:28.831Z,99.99
2018-10-06T05:02:28.739Z,99.99
2018-10-06T05:05:28.711Z,99.99
2018-10-06T05:08:30.591Z,99.95
2018-10-06T05:11:28.626Z,99.28
2018-10-06T05:14:28.620Z,99.99
2018-10-06T05:17:28.613Z,99.99
2018-10-06T05:20:28.559Z,99.40
2018-10-06T05:23:29.567Z,99.60
2018-10-06T05:26:28.495Z,99.99
2018-10-06T05:29:29.311Z,99.50
2018-10-06T05:32:28.413Z,98.42
2018-10-06T05:35:28.395Z,99.75
2018-10-06T05:38:29.027Z,99.44
2018-10-06T05:41:28.299Z,99.85
2018-10-06T05:44:28.264Z,99.13
2018-10-06T05:47:28.251Z,98.77
2018-10-06T05:50:28.244Z,99.74
2018-10-06T05:53:28.147Z,99.95
2018-10-06T05:56:28.135Z,99.99
2018-10-06T05:59:28.135Z,99.99
2018-10-06T06:02:28.087Z,99.99
2018-10-06T06:05:29.012Z,99.99
2018-10-06T06:08:28.014Z,99.99
2018-10-06T06:11:27.948Z,98.33
2018-10-06T06:14:27.976Z,98.43
2018-10-06T06:17:27.899Z,98.49
2018-10-06T06:20:27.890Z,97.47
2018-10-06T06:23:27.822Z,96.26
2018-10-06T06:26:27.888Z,94.12
2018-10-06T06:29:27.772Z,91.24
2018-10-06T06:32:27.732Z,88.06
2018-10-06T06:35:27.710Z,89.63
2018-10-06T06:38:27.754Z,89.63
2018-10-06T06:41:27.622Z,90.55
2018-10-06T06:44:27.732Z,89.73
2018-10-06T06:47:27.572Z,90.60
2018-10-06T06:50:27.526Z,90.56
2018-10-06T06:53:27.472Z,90.46
2018-10-06T06:56:27.453Z,92.04
2018-10-06T06:59:27.433Z,91.43
2018-10-06T07:02:27.384Z,90.17
2018-10-06T07:05:27.337Z,88.06
2018-10-06T07:08:27.310Z,85.88
2018-10-06T07:11:27.311Z,83.98
2018-10-06T07:14:27.272Z,82.31
2018-10-06T07:17:27.230Z,80.11
2018-10-06T07:20:27.189Z,78.62
2018-10-06T07:23:27.152Z,75.20
2018-10-06T07:26:27.228Z,71.80
2018-10-06T07:29:27.113Z,70.96
2018-10-06T07:32:27.104Z,69.56
2018-10-06T07:35:27.054Z,63.39
2018-10-06T07:38:27.005Z,60.16
2018-10-06T07:41:26.946Z,57.81
2018-10-06T07:44:27.958Z,56.59
2018-10-06T07:47:26.874Z,55.54
2018-10-06T07:50:26.843Z,53.56
2018-10-06T07:53:26.829Z,52.32
2018-10-06T07:56:28.871Z,51.92
2018-10-06T07:59:26.875Z,51.20
2018-10-06T08:02:28.552Z,50.35
2018-10-06T08:05:26.655Z,51.52
2018-10-06T08:08:26.644Z,50.82
2018-10-06T08:11:26.625Z,51.10
2018-10-06T08:14:26.595Z,49.08
2018-10-06T08:17:26.555Z,49.66
2018-10-06T08:20:26.499Z,48.65
2018-10-06T08:23:26.507Z,47.90
2018-10-06T08:26:26.646Z,48.54
2018-10-06T08:29:26.421Z,48.54
2018-10-06T08:32:26.374Z,48.25
2018-10-06T08:35:26.356Z,48.13
2018-10-06T08:38:26.320Z,46.89
2018-10-06T08:41:26.310Z,47.36
2018-10-06T08:44:28.031Z,46.77
2018-10-06T08:47:26.189Z,45.65
2018-10-06T08:50:26.186Z,44.84
2018-10-06T08:53:26.157Z,43.53
2018-10-06T08:56:26.202Z,45.23
2018-10-06T08:59:26.092Z,45.29
2018-10-06T09:02:26.080Z,44.23
2018-10-06T09:05:26.025Z,44.92
2018-10-06T09:08:26.015Z,43.51
2018-10-06T09:11:25.963Z,44.40
2018-10-06T09:14:25.931Z,44.09
2018-10-06T09:17:25.885Z,42.85
2018-10-06T09:20:25.884Z,43.66
2018-10-06T09:23:25.812Z,42.68
2018-10-06T09:26:25.859Z,42.72
2018-10-06T09:29:25.780Z,41.39
2018-10-06T09:32:25.746Z,42.28
2018-10-06T09:35:25.716Z,42.70
2018-10-06T09:38:25.694Z,43.27
2018-10-06T09:41:25.623Z,42.32
2018-10-06T09:44:25.584Z,42.88
2018-10-06T09:47:25.542Z,42.44
2018-10-06T09:50:25.522Z,42.88
2018-10-06T09:53:25.483Z,42.93
2018-10-06T09:56:25.467Z,41.51
2018-10-06T09:59:25.499Z,40.92
2018-10-06T10:02:25.393Z,40.41
2018-10-06T10:05:25.507Z,41.59
2018-10-06T10:08:25.448Z,42.02
2018-10-06T10:11:25.434Z,42.72
2018-10-06T10:14:25.339Z,41.38
2018-10-06T10:17:25.280Z,41.06
2018-10-06T10:20:25.263Z,40.21
2018-10-06T10:23:25.242Z,41.22
2018-10-06T10:26:25.169Z,40.03
2018-10-06T10:29:25.116Z,40.21
2018-10-06T10:32:25.139Z,40.31
2018-10-06T10:35:25.134Z,41.55
2018-10-06T10:38:25.061Z,40.29
2018-10-06T10:41:25.020Z,39.81
2018-10-06T10:44:25.118Z,40.45
2018-10-06T10:47:24.956Z,41.83
2018-10-06T10:50:24.946Z,40.23
2018-10-06T10:53:24.873Z,40.31
2018-10-06T10:56:24.887Z,39.79
2018-10-06T10:59:24.866Z,40.08
2018-10-06T11:02:26.539Z,40.09
2018-10-06T11:05:24.772Z,40.31
2018-10-06T11:08:24.768Z,40.61
2018-10-06T11:11:24.846Z,40.39
2018-10-06T11:14:24.701Z,39.81
2018-10-06T11:17:24.626Z,40.03
2018-10-06T11:20:24.641Z,40.55
2018-10-06T11:23:24.592Z,41.17
2018-10-06T11:26:24.640Z,40.00
2018-10-06T11:29:24.519Z,40.64
2018-10-06T11:32:24.557Z,41.65
2018-10-06T11:35:24.446Z,40.35
2018-10-06T11:38:24.510Z,40.23
2018-10-06T11:41:24.388Z,41.97
2018-10-06T11:44:24.366Z,41.53
2018-10-06T11:47:24.343Z,40.64
2018-10-06T11:50:24.387Z,41.53
2018-10-06T11:53:24.289Z,40.15
2018-10-06T11:56:24.302Z,40.03
2018-10-06T11:59:24.176Z,41.73
2018-10-06T12:02:24.188Z,40.45
2018-10-06T12:05:24.237Z,41.04
2018-10-06T12:08:24.142Z,41.87
2018-10-06T12:11:24.072Z,41.65
2018-10-06T12:14:24.039Z,39.87
2018-10-06T12:17:24.003Z,40.37
2018-10-06T12:20:25.021Z,41.65
2018-10-06T12:23:23.949Z,41.57
2018-10-06T12:26:23.914Z,42.78
2018-10-06T12:29:23.910Z,42.05
2018-10-06T12:32:23.890Z,41.83
2018-10-06T12:35:24.005Z,42.14
2018-10-06T12:38:23.815Z,41.81
2018-10-06T12:41:23.766Z,40.16
2018-10-06T12:44:23.732Z,40.55
2018-10-06T12:47:23.714Z,38.68
2018-10-06T12:50:23.700Z,41.43
2018-10-06T12:53:23.613Z,40.72
2018-10-06T12:56:23.639Z,40.00
2018-10-06T12:59:23.564Z,40.41
2018-10-06T13:02:23.555Z,40.19
2018-10-06T13:05:23.493Z,40.11
2018-10-06T13:08:23.484Z,40.64
2018-10-06T13:11:23.458Z,40.11
2018-10-06T13:14:23.402Z,41.25
2018-10-06T13:17:23.372Z,40.19
2018-10-06T13:20:24.606Z,41.30
2018-10-06T13:23:23.313Z,41.25
2018-10-06T13:26:23.285Z,41.20
2018-10-06T13:29:23.230Z,40.61
2018-10-06T13:32:23.241Z,42.00
2018-10-06T13:35:23.168Z,42.07
2018-10-06T13:38:23.160Z,43.59
2018-10-06T13:41:23.108Z,43.53
2018-10-06T13:44:23.085Z,42.56
2018-10-06T13:47:23.062Z,41.61
2018-10-06T13:50:23.060Z,41.81
2018-10-06T13:53:22.985Z,42.32
2018-10-06T13:56:22.963Z,41.61
2018-10-06T13:59:22.931Z,42.38
2018-10-06T14:02:23.111Z,42.91
2018-10-06T14:05:23.050Z,42.61
2018-10-06T14:08:22.837Z,41.30
2018-10-06T14:11:22.815Z,41.31
2018-10-06T14:14:22.771Z,41.47
2018-10-06T14:17:22.748Z,40.00
2018-10-06T14:20:22.931Z,41.09
2018-10-06T14:23:22.661Z,42.54
2018-10-06T14:26:22.723Z,42.05
2018-10-06T14:29:22.619Z,41.59
2018-10-06T14:32:22.641Z,39.28
2018-10-06T14:35:22.572Z,40.41
2018-10-06T14:38:22.503Z,40.21
2018-10-06T14:41:22.479Z,40.94
2018-10-06T14:44:22.578Z,40.34
2018-10-06T14:47:22.509Z,40.26
2018-10-06T14:50:22.369Z,41.65
2018-10-06T14:53:22.330Z,40.25
2018-10-06T14:56:22.388Z,40.72
2018-10-06T14:59:22.311Z,40.72
2018-10-06T15:02:22.298Z,40.74
2018-10-06T15:05:22.214Z,41.06
2018-10-06T15:08:22.239Z,41.14
2018-10-06T15:11:22.128Z,41.06
2018-10-06T15:14:22.395Z,41.46
2018-10-06T15:17:22.097Z,40.19
2018-10-06T15:20:22.111Z,40.31
2018-10-06T15:23:22.016Z,40.20
2018-10-06T15:26:22.208Z,41.10
2018-10-06T15:29:21.942Z,41.67
2018-10-06T15:32:21.924Z,41.79
2018-10-06T15:35:21.881Z,42.11
2018-10-06T15:38:21.844Z,42.21
2018-10-06T15:41:21.871Z,42.01
2018-10-06T15:44:21.802Z,42.21
2018-10-06T15:47:21.733Z,42.43
2018-10-06T15:50:21.721Z,42.25
2018-10-06T15:53:21.687Z,42.94
2018-10-06T15:56:21.658Z,42.74
2018-10-06T15:59:21.598Z,42.74
2018-10-06T16:02:21.609Z,44.04
2018-10-06T16:05:21.554Z,45.42
2018-10-06T16:08:21.641Z,47.25
2018-10-06T16:11:21.469Z,48.59
2018-10-06T16:14:21.471Z,48.91
2018-10-06T16:17:21.399Z,48.81
2018-10-06T16:20:21.391Z,49.23
2018-10-06T16:23:21.340Z,49.46
2018-10-06T16:26:21.310Z,52.44
2018-10-06T16:29:21.265Z,53.89
2018-10-06T16:32:21.244Z,54.94
2018-10-06T16:35:21.205Z,55.69
2018-10-06T16:38:21.176Z,55.89
2018-10-06T16:41:21.226Z,56.42
2018-10-06T16:44:21.144Z,57.45
2018-10-06T16:47:21.121Z,57.68
2018-10-06T16:50:21.091Z,58.18
2018-10-06T16:53:21.027Z,58.87
2018-10-06T16:56:24.962Z,58.91
2018-10-06T16:59:20.928Z,59.13
2018-10-06T17:02:20.985Z,59.23
2018-10-06T17:05:20.861Z,60.16
2018-10-06T17:08:20.829Z,60.60
2018-10-06T17:11:20.793Z,60.89
2018-10-06T17:14:20.783Z,61.13
2018-10-06T17:17:20.730Z,62.23
2018-10-06T17:20:20.689Z,62.99
2018-10-06T17:23:20.668Z,65.36
2018-10-06T17:26:20.628Z,67.24
2018-10-06T17:29:20.602Z,69.59
2018-10-06T17:32:20.561Z,70.06
2018-10-06T17:35:20.508Z,70.59
2018-10-06T17:38:20.525Z,72.14
2018-10-06T17:41:20.436Z,74.33
2018-10-06T17:44:20.488Z,75.24
2018-10-06T17:47:20.384Z,75.88
2018-10-06T17:50:20.451Z,75.00
2018-10-06T17:53:20.329Z,74.80
2018-10-06T17:56:20.302Z,74.49
2018-10-06T17:59:20.250Z,73.75
2018-10-06T18:02:20.240Z,73.85
2018-10-06T18:05:20.196Z,74.73
2018-10-06T18:08:20.170Z,77.64
2018-10-06T18:11:20.105Z,76.42
2018-10-06T18:14:20.089Z,76.42
2018-10-06T18:17:20.205Z,76.32
2018-10-06T18:20:20.080Z,76.86
2018-10-06T18:23:19.993Z,78.58
2018-10-06T18:26:19.969Z,79.13
2018-10-06T18:29:20.030Z,80.38
2018-10-06T18:32:19.904Z,81.05
2018-10-06T18:35:19.840Z,79.19
2018-10-06T18:38:19.811Z,79.08
2018-10-06T18:41:19.763Z,77.84
2018-10-06T18:44:19.749Z,76.79
2018-10-06T18:47:19.704Z,76.35
2018-10-06T18:50:19.682Z,75.54
2018-10-06T18:53:19.635Z,76.04
2018-10-06T18:56:21.557Z,76.39
2018-10-06T18:59:19.582Z,77.39
2018-10-06T19:02:19.545Z,77.84
2018-10-06T19:05:19.540Z,78.75
2018-10-06T19:08:19.494Z,79.08
2018-10-06T19:11:19.452Z,79.59
2018-10-06T19:14:19.430Z,80.20
2018-10-06T19:17:19.388Z,80.71
2018-10-06T19:20:19.341Z,80.54
2018-10-06T19:23:19.325Z,81.96
2018-10-06T19:26:19.285Z,81.35
2018-10-06T19:29:19.231Z,81.31
2018-10-06T19:32:19.204Z,81.21
2018-10-06T19:35:19.166Z,80.20
2018-10-06T19:38:19.167Z,79.35
2018-10-06T19:41:19.104Z,79.15
2018-10-06T19:44:19.101Z,79.75
2018-10-06T19:47:19.021Z,78.85
2018-10-06T19:50:19.010Z,79.21
2018-10-06T19:53:18.971Z,77.50
2018-10-06T19:56:18.946Z,77.19
2018-10-06T19:59:18.907Z,79.75
2018-10-06T20:02:18.861Z,80.10
2018-10-06T20:05:18.836Z,80.40
2018-10-06T20:08:18.827Z,81.05
2018-10-06T20:11:18.787Z,81.45
2018-10-06T20:14:18.738Z,81.15
2018-10-06T20:17:19.531Z,83.45
2018-10-06T20:20:18.670Z,83.90
2018-10-06T20:23:18.638Z,85.11
2018-10-06T20:26:18.725Z,85.15
2018-10-06T20:29:18.585Z,86.16
2018-10-06T20:32:18.541Z,85.86
2018-10-06T20:35:18.495Z,84.61
2018-10-06T20:38:18.528Z,85.01
2018-10-06T20:41:18.419Z,84.20
2018-10-06T20:44:18.441Z,84.81
2018-10-06T20:47:18.375Z,85.62
2018-10-06T20:50:18.362Z,83.25
2018-10-06T20:53:18.315Z,82.54
2018-10-06T20:56:18.263Z,82.07
2018-10-06T20:59:18.236Z,82.34
2018-10-06T21:02:18.191Z,81.45
2018-10-06T21:05:18.207Z,80.13
2018-10-06T21:08:18.129Z,81.15
2018-10-06T21:11:18.136Z,81.69
2018-10-06T21:14:18.061Z,82.44
2018-10-06T21:17:18.037Z,83.90
2018-10-06T21:20:17.988Z,84.41
2018-10-06T21:23:17.956Z,84.10
2018-10-06T21:26:17.917Z,85.05
2018-10-06T21:29:17.969Z,86.00
2018-10-06T21:32:17.887Z,85.76
2018-10-06T21:35:17.818Z,86.07
2018-10-06T21:38:17.795Z,85.80
2018-10-06T21:41:17.747Z,86.91
2018-10-06T21:44:17.725Z,87.67
2018-10-06T21:47:17.686Z,87.97
2018-10-06T21:50:17.651Z,89.33
2018-10-06T21:53:17.640Z,90.49
2018-10-06T21:56:17.619Z,91.41
2018-10-06T21:59:17.559Z,92.02
2018-10-06T22:02:18.514Z,91.71
2018-10-06T22:05:17.486Z,93.33
2018-10-06T22:08:17.444Z,92.12
2018-10-06T22:11:17.405Z,93.33
2018-10-06T22:14:17.401Z,92.93
2018-10-06T22:17:17.355Z,93.28
2018-10-06T22:20:17.338Z,93.84
2018-10-06T22:23:17.266Z,92.93
2018-10-06T22:26:17.294Z,93.13
2018-10-06T22:29:17.272Z,93.13
2018-10-06T22:32:17.182Z,93.03
2018-10-06T22:35:17.161Z,92.72
2018-10-06T22:38:17.122Z,92.48
2018-10-06T22:41:17.077Z,92.58
2018-10-06T22:44:17.046Z,92.79
2018-10-06T22:47:17.015Z,92.89
2018-10-06T22:50:16.978Z,92.68
2018-10-06T22:53:16.975Z,91.42
2018-10-06T22:56:16.924Z,90.22
2018-10-06T22:59:16.869Z,90.16
2018-10-06T23:02:16.864Z,89.92
2018-10-06T23:05:16.806Z,90.02
2018-10-06T23:08:16.780Z,90.18
2018-10-06T23:11:16.742Z,92.00
2018-10-06T23:14:16.709Z,95.39
2018-10-06T23:17:16.694Z,99.13
2018-10-06T23:20:16.756Z,99.99
2018-10-06T23:23:16.658Z,99.99
2018-10-06T23:26:16.636Z,99.99
2018-10-06T23:29:16.630Z,99.99
2018-10-06T23:32:16.553Z,99.99
2018-10-06T23:35:16.548Z,99.99
2018-10-06T23:38:16.519Z,99.99
2018-10-06T23:41:16.398Z,99.99
2018-10-06T23:44:16.435Z,99.99
2018-10-06T23:47:16.418Z,99.99
2018-10-06T23:50:16.385Z,99.99
2018-10-06T23:53:16.321Z,99.99
2018-10-06T23:56:16.356Z,99.99
2018-10-06T23:59:16.264Z,99.99
